Date,TemperatureHighF,TemperatureAvgF,TemperatureLowF,DewpointHighF,DewpointAvgF,DewpointLowF,HumidityHigh,HumidityAvg,HumidityLow,PressureMaxIn,PressureMinIn,WindSpeedMaxMPH,WindSpeedAvgMPH,GustSpeedMaxMPH,PrecipitationSumIn
2013-1-1,33.2,28.3,17.4,25.8,18.3,6.8,80,66,56,29.83,29.60,7,3,14,0.00
2013-1-2,26.0,17.3,9.8,15.2,8.1,0.4,77,67,57,29.98,29.71,6,2,13,0.00
2013-1-3,21.3,12.5,3.3,11.2,1.6,-5.0,75,61,44,30.09,29.85,5,1,9,0.00
2013-1-4,35.2,27.8,18.1,24.5,19.5,11.2,77,71,61,29.90,29.73,2,1,7,0.00
2013-1-5,38.3,30.6,21.2,24.4,20.5,14.5,77,66,51,30.15,29.74,6,1,11,0.00
2013-1-6,39.2,29.7,21.7,28.4,23.4,15.6,85,77,63,30.06,29.85,3,0,5,0.00
2013-1-7,35.7,29.0,20.1,26.9,20.7,13.3,85,71,52,30.29,29.84,4,1,8,0.00
2013-1-8,41.9,31.1,18.8,29.4,23.3,13.1,83,73,58,30.26,30.06,2,0,6,0.00
2013-1-9,40.8,33.5,22.4,33.6,26.9,18.5,87,77,58,30.27,29.93,4,1,12,0.04
2013-1-10,42.2,37.5,30.0,28.4,24.8,22.1,73,60,51,30.41,29.94,7,3,19,0.00
2013-1-11,35.7,30.9,24.4,30.3,25.2,19.4,89,80,69,30.38,30.10,1,0,3,0.12
2013-1-12,39.0,35.6,33.0,36.6,33.2,30.1,93,91,89,30.14,29.98,1,0,3,0.04
2013-1-13,45.5,40.9,36.5,43.8,39.2,34.6,94,94,93,30.09,29.92,1,0,3,0.04
2013-1-14,52.7,44.9,36.6,49.5,39.0,28.1,95,81,52,30.16,29.80,5,1,11,0.00
2013-1-15,38.6,34.2,30.3,28.3,25.5,23.7,81,70,60,30.24,30.07,3,0,4,0.00
2013-1-16,32.5,30.6,28.4,30.2,27.4,24.3,91,88,77,30.12,29.76,2,0,4,0.00
2013-1-17,37.2,31.7,26.9,31.2,25.6,15.3,91,79,59,30.02,29.69,5,1,9,0.28
2013-1-18,26.7,19.7,15.2,14.3,4.9,0.0,67,52,42,30.30,29.91,6,2,12,0.00
2013-1-19,42.2,32.3,18.5,29.2,21.0,8.0,78,63,51,30.19,29.80,3,1,9,0.04
2013-1-20,47.6,36.8,26.0,31.3,24.6,10.8,79,62,40,29.82,29.54,6,2,17,0.00
2013-1-21,26.9,22.7,17.7,16.8,11.1,5.9,81,61,48,29.99,29.69,5,1,12,0.00
2013-1-22,21.0,17.6,10.2,16.6,7.5,-1.0,83,65,44,29.94,29.58,6,2,15,0.00
2013-1-23,12.7,8.4,4.4,0.4,-4.5,-8.0,66,54,44,30.08,29.85,6,2,11,0.00
2013-1-24,17.0,8.5,0.6,-2.0,-5.9,-9.0,62,50,39,30.10,29.84,7,3,14,0.00
2013-1-25,21.0,13.6,5.8,8.8,-2.3,-8.0,73,48,37,30.23,29.92,4,2,11,0.00
2013-1-26,20.3,14.3,7.3,9.4,2.8,-4.0,78,61,39,30.14,29.77,6,2,14,0.00
2013-1-27,27.5,17.4,8.7,6.3,2.9,0.0,70,53,36,30.40,30.05,5,2,10,0.00
2013-1-28,28.9,22.3,14.5,21.8,13.2,3.7,86,68,47,30.29,29.89,2,0,4,0.00
2013-1-29,32.1,28.2,23.5,29.5,24.8,20.2,90,87,84,30.10,29.88,1,0,3,0.04
2013-1-30,55.0,43.6,32.0,53.3,41.6,29.4,94,92,90,30.05,29.45,3,1,7,0.43
2013-1-31,57.9,44.0,28.2,56.2,36.1,16.1,94,75,51,29.55,29.04,8,3,20,1.30
2013-2-1,30.3,25.7,19.5,15.7,9.8,4.8,60,51,42,29.96,29.52,6,3,17,0.00
2013-2-2,28.5,22.2,14.7,12.4,7.6,2.9,63,53,44,30.15,29.90,4,1,9,0.00
2013-2-3,26.4,23.1,17.7,19.6,16.9,12.5,84,77,64,29.92,29.64,3,0,5,0.00
2013-2-4,26.9,21.2,15.9,17.3,10.8,7.3,83,64,47,29.86,29.56,6,2,15,0.00
2013-2-5,28.9,23.2,17.2,18.9,13.5,8.6,81,66,54,29.94,29.76,3,1,5,0.00
2013-2-6,34.7,27.2,21.7,23.8,17.3,5.8,86,67,44,30.16,29.76,4,1,8,0.00
2013-2-7,29.3,22.6,14.5,8.8,6.2,3.8,69,50,38,30.50,30.13,3,1,7,0.00
2013-2-8,24.2,21.4,16.7,19.2,14.8,8.4,89,76,53,30.31,29.57,6,2,14,0.00
2013-2-9,22.4,18.0,13.4,19.9,15.2,10.3,90,89,86,30.09,29.49,7,6,18,0.04
2013-2-10,35.7,19.9,7.3,14.4,8.6,3.5,87,64,37,30.45,30.06,3,1,6,0.00
2013-2-11,39.2,29.8,17.4,37.0,24.3,7.3,92,80,62,30.22,29.60,3,0,6,0.20
2013-2-12,40.4,36.4,32.9,36.8,27.9,23.8,92,71,60,29.83,29.55,7,2,15,0.00
2013-2-13,39.3,32.6,27.1,26.0,22.9,19.9,75,67,55,29.88,29.64,4,1,7,0.00
2013-2-14,41.5,32.6,24.8,24.1,21.8,18.3,77,65,48,30.02,29.64,3,0,7,0.00
2013-2-15,48.7,36.1,26.0,34.2,28.0,20.2,88,73,54,30.17,29.66,3,1,7,0.00
2013-2-16,36.8,32.7,26.7,29.8,26.1,17.3,88,77,60,30.30,29.59,4,1,9,0.08
2013-2-17,26.7,20.1,14.1,18.2,8.9,1.0,84,62,47,29.69,29.40,9,6,22,0.00
2013-2-18,28.9,19.1,11.4,6.5,2.7,0.0,60,49,35,30.12,29.62,7,3,17,0.00
2013-2-19,44.4,31.8,18.1,35.3,22.1,3.9,90,68,50,30.04,29.57,3,1,7,0.31
2013-2-20,36.8,29.3,23.9,34.2,18.8,10.6,90,65,47,29.73,29.51,5,3,15,0.04
2013-2-21,30.7,25.2,21.7,15.2,13.0,10.4,70,60,49,30.10,29.65,8,4,18,0.00
2013-2-22,37.9,29.2,18.8,22.2,18.8,13.1,80,65,50,30.39,30.08,4,1,8,0.00
2013-2-23,35.7,32.2,28.2,29.3,26.3,20.6,89,79,73,30.22,29.77,3,1,5,0.00
2013-2-24,32.9,32.1,30.9,30.8,29.9,28.8,92,91,89,29.77,29.61,2,0,6,0.04
2013-2-25,36.8,32.0,26.0,33.0,29.2,23.2,92,90,84,30.15,29.77,2,0,4,0.00
2013-2-26,39.9,34.5,31.2,32.8,29.4,27.0,92,82,69,30.28,30.06,3,1,6,0.94
2013-2-27,39.5,35.2,32.3,37.7,32.8,27.6,93,91,82,30.06,29.55,6,2,14,1.79
2013-2-28,33.9,32.3,30.5,31.4,30.3,28.2,93,92,90,29.58,29.50,2,0,5,0.00
2013-3-1,38.6,35.0,30.7,31.5,28.7,25.5,93,78,66,29.67,29.47,4,2,8,0.00
2013-3-2,38.6,34.5,31.4,28.3,26.3,24.7,77,72,64,29.70,29.55,3,2,8,0.00
2013-3-3,37.9,32.5,29.4,29.0,25.8,22.7,86,76,66,29.67,29.52,4,2,9,0.00
2013-3-4,37.7,31.4,25.7,24.9,22.3,18.5,77,69,57,29.72,29.51,6,4,19,0.00
2013-3-5,43.5,34.7,28.2,29.1,25.0,20.5,78,68,56,30.09,29.70,5,2,10,0.00
2013-3-6,37.5,34.0,31.2,32.7,30.4,27.5,90,86,78,30.06,29.89,5,2,14,0.12
2013-3-7,32.7,30.5,28.9,29.2,27.5,25.7,92,89,82,30.01,29.86,4,3,12,0.00
2013-3-8,35.0,31.2,28.4,33.3,29.0,26.5,94,91,80,30.09,29.78,5,3,12,0.00
2013-3-9,49.1,35.8,26.7,29.1,24.7,19.9,85,66,38,30.40,30.01,3,1,8,0.20
2013-3-10,45.5,32.9,21.0,32.1,26.0,17.5,89,76,56,30.49,30.16,3,1,5,0.00
2013-3-11,49.1,39.7,32.9,36.4,32.9,29.0,87,77,60,30.24,30.07,3,1,9,0.00
2013-3-12,50.1,44.3,37.0,47.4,41.9,33.5,94,91,86,30.07,29.70,4,1,9,0.75
2013-3-13,45.8,38.5,29.8,41.4,29.0,21.1,93,71,42,29.94,29.69,6,2,11,0.00
2013-3-14,32.7,28.2,20.8,24.1,14.8,7.0,73,57,47,29.83,29.65,7,3,16,0.00
2013-3-15,39.3,28.7,17.7,26.1,15.8,7.6,78,59,37,29.84,29.61,5,2,10,0.00
2013-3-16,36.6,31.0,25.3,25.7,17.3,13.2,79,58,40,29.81,29.61,4,1,8,0.00
2013-3-17,35.0,28.4,22.4,15.9,12.1,6.6,71,52,34,30.13,29.73,6,2,13,0.00
2013-3-18,37.0,26.4,15.2,22.9,8.8,3.4,80,48,32,30.41,30.12,3,1,5,0.00
2013-3-19,33.9,30.7,27.3,30.9,27.8,22.8,92,89,80,30.12,29.63,4,2,12,0.00
2013-3-20,36.5,28.7,21.9,25.4,21.1,18.1,89,74,53,29.92,29.60,4,1,10,0.04
2013-3-21,36.8,27.9,18.5,24.9,19.2,14.2,85,71,50,29.75,29.56,3,0,5,0.04
2013-3-22,38.4,30.1,23.0,22.4,18.5,14.6,71,62,47,29.78,29.50,5,2,11,0.24
2013-3-23,40.4,32.9,25.5,22.1,20.2,18.0,75,60,45,29.83,29.59,7,3,14,0.08
2013-3-24,44.7,35.4,28.9,25.4,22.3,18.6,72,59,45,29.96,29.67,4,2,10,0.00
2013-3-25,41.9,34.5,28.9,30.1,25.8,21.0,76,71,61,29.72,29.52,4,2,12,0.00
2013-3-26,45.5,37.5,31.1,29.6,25.3,20.3,73,62,41,29.84,29.50,4,2,9,0.00
2013-3-27,49.2,38.5,28.0,28.9,24.1,19.7,72,57,38,29.91,29.66,5,2,12,0.00
2013-3-28,47.8,40.3,34.3,32.3,30.2,28.2,84,68,51,29.98,29.79,4,1,8,0.00
2013-3-29,54.8,42.4,32.5,35.3,30.3,27.5,83,64,41,30.10,29.91,4,1,13,0.00
2013-3-30,53.4,42.7,33.4,30.7,25.3,20.8,75,53,29,30.14,29.91,5,2,9,0.00
2013-3-31,58.4,42.7,27.5,37.2,27.5,20.0,83,58,31,30.02,29.67,4,1,10,0.04
2013-4-1,59.5,43.8,32.5,44.5,34.4,14.8,90,71,45,29.76,29.50,8,2,12,0.39
2013-4-2,38.4,31.9,26.2,19.2,15.2,12.4,63,50,39,29.98,29.71,6,3,17,0.00
2013-4-3,42.6,34.0,27.6,19.3,15.3,12.5,65,47,34,30.12,29.81,6,3,18,0.00
2013-4-4,54.8,39.6,26.7,24.6,19.1,14.6,63,45,28,30.32,29.99,5,2,10,0.00
2013-4-5,58.2,44.3,34.3,30.5,26.3,23.7,72,52,28,29.99,29.69,6,2,14,0.00
2013-4-6,44.9,35.5,28.2,24.9,13.8,8.1,61,42,25,30.38,29.84,9,3,17,0.00
2013-4-7,55.5,40.7,25.3,37.5,26.1,12.8,77,57,34,30.25,29.96,4,2,15,0.00
2013-4-8,64.9,51.4,39.9,40.3,38.1,35.5,88,63,36,30.23,29.88,5,1,9,0.00
2013-4-9,67.4,55.0,44.6,51.1,42.7,38.3,89,65,45,30.10,29.86,7,2,19,0.08
2013-4-10,63.5,52.5,45.1,50.7,45.4,41.3,89,77,59,30.09,29.84,3,1,5,0.35
2013-4-11,54.1,46.8,39.0,45.9,36.9,25.7,91,70,45,30.10,29.80,5,2,8,0.08
2013-4-12,39.0,36.3,34.8,34.0,32.8,30.7,92,87,72,30.09,29.76,5,2,11,0.67
2013-4-13,53.4,42.2,33.6,39.0,34.7,31.5,92,76,55,29.91,29.69,4,2,9,0.16
2013-4-14,49.1,42.1,35.9,37.8,31.8,26.1,88,68,46,30.16,29.85,6,2,13,0.00
2013-4-15,59.5,44.5,29.3,37.0,31.4,24.5,84,62,41,30.37,30.12,4,1,7,0.00
2013-4-16,67.1,51.1,36.8,49.8,40.9,31.1,85,70,47,30.35,30.05,4,2,10,0.00
2013-4-17,65.1,55.8,46.4,51.0,38.4,29.2,87,55,32,30.34,30.04,5,2,9,0.00
2013-4-18,64.9,50.2,34.8,43.0,33.9,28.4,81,56,36,30.39,30.07,4,2,9,0.00
2013-4-19,74.4,61.8,51.6,61.0,55.6,43.2,90,81,59,30.07,29.65,4,2,9,0.00
2013-4-20,64.4,51.0,40.4,60.6,39.6,23.7,91,67,41,30.10,29.62,6,3,13,0.67
2013-4-21,44.7,35.4,30.7,25.7,21.5,20.0,66,57,45,30.40,30.10,5,2,9,0.00
2013-5-4,66.0,56.5,39.7,46.1,35.5,29.2,72,47,30,30.36,30.22,4,2,10,0.00
2013-5-5,64.5,48.9,34.7,42.0,36.1,29.9,86,64,39,30.32,30.11,4,1,7,0.00
2013-5-6,75.0,55.4,37.0,49.1,41.3,32.9,88,63,31,30.26,30.12,4,1,7,0.00
2013-5-7,79.3,63.0,44.7,57.0,49.6,40.2,87,64,38,30.22,30.08,4,1,7,0.00
2013-5-8,70.1,60.6,51.4,62.4,55.9,47.3,93,85,69,30.19,30.05,5,1,8,1.10
2013-5-9,64.9,59.2,56.1,61.8,56.9,54.1,94,92,83,30.06,29.91,2,0,3,0.31
2013-5-10,76.4,63.3,50.5,59.9,54.7,48.4,94,76,46,30.00,29.88,2,0,7,0.04
2013-5-11,66.3,62.0,58.1,60.7,57.4,53.3,92,85,72,29.93,29.71,2,1,8,0.28
2013-5-12,67.6,58.4,47.3,58.2,50.1,33.2,93,76,49,29.79,29.63,5,1,11,0.16
2013-5-13,56.4,47.9,41.0,34.9,31.4,28.4,70,53,40,29.99,29.78,4,2,13,0.00
2013-5-14,55.4,47.4,39.2,34.4,32.4,30.4,75,57,41,30.04,29.91,4,1,8,0.00
2013-5-15,63.1,48.6,33.9,50.3,39.3,29.6,87,73,40,30.00,29.69,3,1,7,0.04
2013-5-16,79.3,64.0,48.3,49.5,44.2,37.1,89,54,28,29.83,29.64,6,2,17,0.04
2013-5-17,69.6,58.0,46.9,45.4,40.9,37.1,77,55,35,30.16,29.83,4,1,11,0.00
2013-5-18,71.7,57.4,41.1,46.7,42.3,36.8,86,60,34,30.24,30.14,2,0,7,0.00
2013-5-19,69.6,57.4,48.5,52.6,48.8,43.2,90,74,48,30.26,30.16,2,0,4,0.08
2013-5-20,80.0,66.4,55.0,65.1,59.2,52.1,92,79,58,30.16,30.00,3,1,6,0.04
2013-5-21,86.7,64.5,50.5,68.6,58.0,47.4,92,81,52,30.05,29.92,4,0,14,0.28
2013-5-22,74.6,59.7,49.4,66.9,55.6,46.8,94,87,75,30.07,29.86,0,0,0,0.39
2013-5-24,47.6,47.4,47.3,45.4,45.2,45.0,93,92,92,29.83,29.83,0,0,0,1.44
2013-5-25,48.5,45.2,39.5,46.9,43.2,37.0,94,93,90,29.83,29.72,0,0,0,0.63
2013-5-26,55.0,46.4,38.1,41.8,38.7,35.3,92,75,57,30.07,29.66,6,3,16,0.08
2013-5-27,70.3,55.1,39.3,44.2,40.7,35.8,89,62,34,30.12,30.01,4,1,11,0.00
2013-5-28,73.5,58.0,42.0,51.3,45.6,38.1,88,66,37,30.22,30.08,2,0,6,0.00
2013-5-29,70.3,62.0,57.0,65.2,58.4,51.4,93,88,77,30.15,30.04,3,0,7,1.02
2013-5-30,84.5,71.4,59.3,70.3,64.8,57.3,95,81,59,30.18,30.05,3,1,9,0.00
2013-5-31,90.5,76.4,61.8,70.4,64.9,59.2,93,71,44,30.17,30.09,2,0,6,0.00
2013-6-1,90.1,77.7,65.1,69.2,64.9,60.1,86,67,43,30.11,30.01,2,0,8,0.00
2013-6-2,87.2,75.9,67.6,69.8,65.8,62.9,86,73,47,30.03,29.90,2,1,7,0.00
2013-6-3,74.6,67.2,58.4,67.1,61.4,45.8,93,82,61,29.93,29.84,3,0,8,0.94
2013-6-4,69.9,59.6,50.5,49.4,45.1,39.9,80,59,45,30.04,29.77,5,2,11,0.00
2013-6-5,73.9,60.1,47.1,54.7,48.5,43.4,89,68,42,30.15,30.00,2,0,6,0.00
2013-6-6,71.7,61.8,52.1,54.0,49.9,46.6,85,66,47,30.16,30.08,2,0,5,0.04
2013-6-7,57.0,54.8,51.8,54.7,52.0,49.8,94,90,84,30.08,29.81,3,1,6,3.11
2013-6-8,72.8,60.4,51.0,65.2,56.3,49.1,95,87,73,30.01,29.62,3,1,12,1.50
2013-6-9,76.4,65.3,56.4,58.7,55.8,53.6,91,73,51,30.18,30.01,3,1,8,0.00
2013-6-10,67.1,60.6,53.7,60.6,56.3,50.6,93,86,74,30.19,30.00,3,0,7,1.10
2013-6-11,59.5,56.9,55.0,57.5,55.0,53.0,94,93,91,30.00,29.60,2,1,6,1.50
2013-6-12,66.5,60.2,54.3,56.0,53.8,50.2,94,80,63,29.83,29.57,6,2,15,0.00
2013-6-13,60.9,54.2,49.2,57.7,51.6,46.4,94,91,87,29.82,29.68,2,0,6,1.65
2013-6-14,67.4,57.1,50.1,60.3,53.5,48.2,95,88,69,29.78,29.63,2,1,7,1.42
2013-6-15,76.1,62.8,51.6,53.2,50.7,48.1,93,68,41,29.96,29.78,3,1,9,0.00
2013-6-16,72.8,63.4,50.9,62.0,54.4,45.9,85,73,60,29.95,29.75,3,0,6,0.00
2013-6-17,81.8,68.0,59.0,63.4,59.1,54.6,91,75,48,29.99,29.81,6,1,9,0.71
2013-6-18,70.7,60.9,57.2,65.2,58.1,54.8,94,91,80,29.97,29.88,2,0,6,0.63
2013-6-19,72.1,60.8,53.6,55.9,52.9,49.2,93,77,48,30.12,29.91,2,0,5,0.20
2013-6-20,77.1,62.9,48.5,56.9,51.9,45.4,91,70,42,30.25,30.12,2,0,5,0.00
2013-6-21,82.4,68.4,56.4,66.3,58.9,52.0,87,73,51,30.30,30.20,2,0,8,0.00
2013-6-22,81.8,70.9,59.7,65.2,60.0,55.5,87,70,47,30.28,30.13,1,0,5,0.00
2013-6-23,87.2,74.6,61.7,72.8,65.1,56.7,86,73,57,30.23,30.07,2,0,5,0.00
2013-6-24,90.1,77.4,68.7,75.1,69.0,65.1,90,76,57,30.16,30.00,5,1,11,0.04
2013-6-25,87.9,76.6,66.2,71.9,67.4,63.1,91,75,54,30.04,29.89,3,0,6,0.00
2013-6-26,80.9,74.3,68.3,71.2,67.4,64.0,88,79,68,29.95,29.81,3,0,6,0.04
2013-6-27,72.1,67.8,64.0,68.0,64.3,61.5,92,89,85,29.92,29.81,2,0,4,0.00
2013-6-28,77.1,67.8,59.7,73.6,65.0,57.6,95,91,83,29.81,29.59,2,0,8,0.63
2013-6-29,81.5,73.5,68.7,70.1,67.7,65.7,93,83,64,29.83,29.59,2,0,7,0.04
2013-6-30,83.4,74.7,68.3,71.8,68.4,64.8,91,81,66,30.03,29.82,1,0,5,0.00
2013-7-1,77.9,73.4,70.8,73.7,70.4,67.7,94,90,82,30.17,30.02,1,0,3,0.67
2013-7-2,80.7,73.8,66.3,73.7,70.1,62.7,95,89,78,30.27,30.14,2,0,4,0.00
2013-7-3,85.2,74.7,63.5,74.4,68.6,60.6,94,82,66,30.28,30.17,2,0,6,0.00
2013-7-4,89.4,79.8,71.7,75.5,72.1,69.0,92,78,61,30.30,30.24,1,0,5,0.00
2013-7-5,90.1,81.8,74.3,75.4,72.6,70.0,88,75,59,30.30,30.20,1,0,6,0.00
2013-7-6,87.6,79.3,72.6,74.4,71.3,67.3,90,77,57,30.21,30.15,3,1,7,0.00
2013-7-7,89.2,76.7,69.8,76.5,70.1,65.0,89,81,64,30.17,30.06,2,0,4,0.00
2013-7-8,87.6,77.1,70.5,74.0,70.1,65.0,92,80,58,30.17,30.02,2,0,6,0.00
2013-7-9,73.4,69.7,66.3,68.4,65.6,63.2,90,87,83,30.19,30.13,2,0,3,0.00
2013-7-10,83.3,73.3,66.5,74.6,69.2,63.4,93,87,73,30.14,29.92,2,0,4,0.08
2013-7-11,80.7,74.5,70.5,74.0,70.5,66.6,94,88,75,30.04,29.90,2,0,4,0.08
2013-7-12,76.1,70.2,64.9,66.4,61.5,58.2,87,74,61,30.24,30.04,3,1,9,0.00
2013-7-13,74.3,68.9,64.0,69.9,64.5,58.0,92,86,79,30.36,30.23,1,0,3,0.04
2013-7-14,87.9,77.8,70.3,75.0,71.3,68.0,94,81,62,30.40,30.31,3,0,6,0.00
2013-7-15,88.1,77.7,71.2,75.2,71.3,68.4,91,82,59,30.32,30.20,2,0,6,0.00
2013-7-16,91.0,79.0,67.8,72.6,69.0,64.4,90,73,49,30.30,30.15,2,0,6,0.00
2013-7-17,91.5,79.8,69.4,74.5,70.6,66.2,91,75,54,30.30,30.16,2,0,4,0.00
2013-7-18,92.3,82.2,74.6,76.2,72.6,69.6,87,74,54,30.21,30.10,2,0,5,0.00
2013-7-19,93.9,83.0,72.8,76.8,73.3,68.9,90,74,52,30.10,29.94,2,0,9,0.00
2013-7-20,88.7,80.9,72.8,76.8,72.4,62.0,89,76,62,29.95,29.88,2,0,6,0.00
2013-7-21,84.5,74.4,67.2,68.2,64.7,60.8,84,72,53,30.09,29.89,1,0,4,0.00
2013-7-22,81.8,71.8,64.7,70.3,65.7,61.4,91,82,65,30.09,29.96,3,1,6,0.00
2013-7-23,80.0,71.3,68.1,76.6,68.8,64.9,94,92,80,29.96,29.68,3,0,5,1.50
2013-7-24,80.4,73.3,65.3,70.1,66.1,54.8,95,80,59,29.98,29.69,3,1,7,0.00
2013-7-25,64.9,59.6,57.5,56.6,53.1,48.1,90,79,69,30.08,29.91,3,1,7,0.04
2013-7-26,71.4,63.6,59.7,66.2,60.3,56.4,94,89,77,30.04,29.98,3,1,6,0.67
2013-7-27,80.4,68.4,58.1,68.3,62.3,55.7,94,82,57,30.12,30.01,1,0,3,0.00
2013-7-28,80.7,70.8,62.9,71.0,65.3,59.3,90,83,63,30.09,30.02,2,0,4,0.00
2013-7-29,81.8,72.2,65.4,72.4,66.5,61.3,93,83,68,30.13,30.05,2,0,5,0.04
2013-7-30,79.8,69.3,60.8,62.0,58.8,55.6,86,70,50,30.19,30.11,3,1,7,0.00
2013-7-31,79.3,68.4,59.5,64.3,59.6,55.6,88,75,49,30.18,30.09,1,0,3,0.00
2013-8-1,76.8,66.6,59.7,65.8,61.7,56.4,92,85,67,30.10,29.92,1,0,4,0.24
2013-8-2,79.3,69.1,63.5,66.6,62.7,60.5,94,81,55,29.97,29.85,2,0,8,1.06
2013-8-3,76.4,67.3,61.3,65.4,61.8,57.1,94,83,63,29.95,29.87,2,0,7,0.04
2013-8-4,77.1,65.3,56.3,60.3,56.9,53.0,90,76,52,29.94,29.86,3,1,9,0.00
2013-8-5,74.1,62.6,54.3,54.7,50.1,45.3,85,66,40,30.05,29.92,4,1,10,0.00
2013-8-6,75.9,62.5,50.0,59.7,53.2,46.5,90,73,49,30.16,30.03,1,0,5,0.00
2013-8-7,77.9,66.6,55.9,60.9,56.2,52.4,91,71,47,30.23,30.13,2,0,4,0.00
2013-8-8,78.9,70.6,64.4,71.5,65.5,57.3,92,84,76,30.14,30.07,1,0,5,0.04
2013-8-9,73.9,71.7,69.6,72.4,69.2,66.9,95,92,87,30.10,29.86,2,0,4,1.73
2013-8-10,78.9,69.7,62.0,68.1,60.9,53.5,95,76,47,30.07,29.90,3,1,10,0.04
2013-8-11,77.7,64.9,52.8,60.1,55.2,49.2,90,73,50,30.15,30.05,2,0,5,0.00
2013-8-12,80.0,68.1,57.9,63.1,58.7,54.6,91,74,49,30.10,29.98,2,0,5,0.00
2013-8-13,73.4,67.1,64.2,66.6,63.1,60.2,91,87,77,29.98,29.75,1,0,2,0.00
2013-8-14,71.9,64.4,57.9,62.6,54.2,49.3,91,70,53,29.94,29.72,4,2,15,0.04
2013-8-15,74.4,61.9,52.8,56.5,52.4,48.6,88,73,48,30.10,29.94,2,0,6,0.00
2013-8-16,76.8,63.4,52.1,59.1,54.4,48.7,90,74,48,30.20,30.03,2,0,5,0.00
2013-8-17,79.3,65.8,54.3,63.3,57.6,51.1,91,76,51,30.32,30.14,2,0,4,0.00
2013-8-18,74.3,67.1,59.5,65.1,60.9,55.3,90,81,70,30.27,30.10,1,0,2,0.00
2013-8-19,78.2,66.6,59.5,63.9,59.9,56.2,91,80,60,30.10,30.04,2,0,6,0.00
2013-8-20,83.4,71.5,62.2,65.3,61.7,58.6,89,73,50,30.19,30.03,2,0,5,0.00
2013-8-21,85.4,71.6,59.9,67.7,62.4,56.6,91,75,50,30.26,30.04,2,0,7,0.00
2013-8-22,82.2,72.8,62.6,71.0,66.0,59.3,90,80,61,30.06,29.91,1,0,6,0.00
2013-8-23,78.9,70.8,61.5,67.6,59.3,51.6,88,68,47,30.11,29.90,2,1,7,0.00
2013-8-24,76.8,64.2,53.6,53.8,50.7,48.2,83,63,40,30.49,30.08,2,0,5,0.00
2013-8-25,80.7,65.4,51.9,58.4,53.3,48.0,90,68,39,30.36,30.18,2,0,5,0.00
2013-8-26,77.5,70.0,62.9,66.3,61.3,55.7,86,74,61,30.19,29.95,2,0,7,0.04
2013-8-27,82.2,72.3,67.2,71.2,66.8,63.5,92,84,62,30.05,29.86,2,0,4,0.28
2013-8-28,84.7,73.1,63.6,70.2,65.4,60.9,93,78,57,30.09,29.86,2,0,4,0.00
2013-8-29,67.8,64.4,60.8,63.6,60.8,57.2,91,88,84,30.12,29.95,2,1,6,0.04
2013-8-30,81.5,68.8,59.5,68.5,62.9,56.2,91,82,62,30.06,29.92,2,0,6,0.00
2013-8-31,70.1,68.4,67.4,66.1,65.0,64.4,91,89,87,29.92,29.88,0,0,1,0.00
2013-9-8,53.7,51.6,50.0,43.2,42.7,42.3,75,72,67,29.99,29.92,0,0,1,0.00
2013-9-9,67.8,55.2,42.8,50.9,45.3,39.0,89,71,46,30.17,29.91,1,0,4,0.00
2013-9-10,74.6,64.9,55.9,69.6,60.9,49.8,93,87,79,30.11,30.03,1,0,6,0.16
2013-9-11,89.9,77.3,67.2,77.5,70.9,65.1,95,82,61,30.26,30.08,4,0,9,0.00
2013-9-12,83.6,74.8,66.5,73.8,68.8,64.3,93,82,67,30.11,29.79,2,0,5,1.65
2013-9-13,75.0,66.4,57.7,69.5,62.5,53.1,94,88,73,29.79,29.68,3,1,6,0.12
2013-9-14,66.5,58.5,52.7,54.3,51.4,48.4,87,78,63,30.01,29.76,4,1,9,0.04
2013-9-15,69.4,56.9,47.1,53.4,49.1,43.7,91,77,46,30.12,30.00,2,0,5,0.00
2013-9-16,66.3,56.7,46.9,55.5,49.6,37.6,89,78,63,30.18,29.96,3,1,7,0.00
2013-9-17,61.5,49.4,39.9,45.0,39.5,34.4,86,70,49,30.38,30.18,3,1,5,0.00
2013-9-18,71.0,53.3,40.8,51.1,44.3,37.8,92,74,42,30.26,30.10,2,0,6,0.00
2013-9-19,77.1,60.5,47.6,57.7,50.8,43.9,90,73,46,30.18,30.04,1,0,4,0.00
2013-9-20,77.9,61.6,49.1,59.4,53.0,45.9,92,75,47,30.12,30.00,1,0,3,0.00
2013-9-21,72.1,63.7,54.3,63.4,58.2,51.0,92,83,67,30.02,29.77,2,0,4,0.00
2013-9-22,68.1,61.6,50.9,65.0,54.8,44.2,93,79,59,29.85,29.67,4,1,8,0.71
2013-9-23,61.7,51.8,45.1,46.1,42.0,38.5,82,70,54,29.99,29.81,3,2,9,0.00
2013-9-24,65.6,52.7,43.1,46.2,41.8,37.7,82,68,43,29.95,29.83,4,1,8,0.00
2013-9-25,68.1,55.6,45.3,54.3,47.4,41.2,88,75,56,29.96,29.83,3,0,10,0.00
2013-9-26,65.8,56.6,51.8,50.2,48.3,45.9,87,75,56,30.11,29.95,2,0,4,0.00
2013-9-27,62.9,56.8,49.4,53.6,50.4,46.0,88,79,69,30.21,30.08,2,0,5,0.00
2013-9-28,71.4,56.2,45.6,57.1,49.7,42.9,93,80,57,30.30,30.18,2,0,4,0.00
2013-9-29,68.0,53.6,45.1,54.7,46.3,41.4,92,78,46,30.21,30.07,2,0,4,0.00
2013-9-30,59.0,45.5,41.7,52.2,42.0,38.4,91,87,70,30.07,30.00,1,0,2,0.00
2013-10-6,54.8,54.2,53.2,53.1,52.4,50.9,94,94,92,30.16,30.10,1,0,3,0.51
2013-10-7,73.4,61.2,54.6,69.2,58.7,52.8,95,92,79,30.10,29.85,3,1,11,0.55
2013-10-8,62.7,53.7,43.3,53.4,44.9,39.4,91,74,49,30.29,29.93,3,1,8,0.00
2013-10-9,62.2,48.5,40.4,48.1,41.8,37.1,89,79,57,30.37,30.26,2,0,7,0.00
2013-10-10,57.3,49.5,41.0,50.9,45.2,38.1,92,85,79,30.27,30.11,2,0,4,0.00
2013-10-11,68.5,54.8,44.9,56.4,47.6,42.2,92,78,51,30.15,30.04,3,0,5,0.00
2013-10-12,56.6,51.5,44.6,53.5,48.3,41.5,92,89,84,30.27,30.07,2,0,5,0.00
2013-10-13,56.3,50.9,42.6,49.3,46.4,39.3,91,85,75,30.31,30.24,2,0,4,0.00
2013-10-14,64.4,50.2,39.2,47.4,43.1,36.7,94,78,47,30.25,30.12,1,0,6,0.20
2013-10-15,65.6,55.4,48.7,53.7,48.8,44.1,89,79,62,30.17,30.09,2,0,5,0.00
2013-10-16,57.7,53.2,47.8,51.6,49.1,44.4,92,86,77,30.13,29.90,1,0,3,0.00
2013-10-17,72.5,59.0,49.1,59.4,53.7,46.2,94,84,59,29.90,29.74,2,0,5,0.00
2013-10-18,64.9,57.5,44.2,58.7,49.3,40.0,93,75,54,29.87,29.63,5,1,13,0.08
2013-10-19,65.3,51.5,39.0,47.7,42.2,35.7,92,72,45,29.92,29.73,2,0,4,0.00
2013-10-20,59.5,50.9,39.7,48.2,40.0,33.4,89,68,42,29.96,29.67,5,2,12,0.00
2013-10-21,65.1,49.2,35.7,44.7,38.7,32.0,89,69,42,30.14,29.94,2,0,7,0.00
2013-10-22,63.6,51.6,42.6,51.7,43.7,36.6,92,75,58,29.95,29.72,3,0,6,0.00
2013-10-23,48.7,42.7,34.1,37.4,34.4,30.4,90,73,56,29.75,29.59,3,0,5,0.00
2013-10-24,50.5,43.0,36.8,35.2,30.3,26.2,78,62,42,29.85,29.62,4,1,10,0.00
2013-10-25,46.9,38.8,31.1,33.8,28.3,24.6,86,67,49,30.08,29.80,4,1,10,0.00
2013-10-26,53.0,41.0,30.3,34.5,29.5,24.7,87,66,40,30.04,29.56,3,0,11,0.00
2013-10-27,52.3,45.5,38.6,36.4,33.3,28.8,78,63,48,29.95,29.72,5,1,12,0.00
2013-10-28,55.9,43.0,32.1,37.4,31.3,25.1,83,64,48,30.24,29.95,5,1,8,0.00
2013-10-29,47.1,34.9,26.9,25.9,23.1,19.8,83,64,39,30.44,30.20,2,0,5,0.00
2013-10-30,51.2,39.7,29.6,40.1,32.7,22.7,85,76,64,30.23,30.10,2,0,6,0.00
2013-10-31,58.4,47.1,32.7,56.4,44.2,29.4,94,90,85,30.14,29.78,2,0,6,0.35
2013-11-1,65.4,61.1,53.4,61.2,56.1,48.7,93,84,72,29.78,29.51,3,1,11,0.24
2013-11-2,62.9,51.8,42.4,49.0,43.6,39.4,91,75,50,29.76,29.60,2,0,5,0.00
2013-11-3,46.9,40.3,30.9,42.9,28.1,17.0,86,63,38,30.28,29.71,4,2,9,0.00
2013-11-4,41.1,31.3,25.1,20.6,17.9,16.4,75,58,41,30.65,30.28,3,1,7,0.00
2013-11-5,48.7,35.9,24.9,32.2,27.1,18.8,85,71,51,30.67,30.38,2,0,6,0.00
2013-11-6,58.6,48.2,37.0,46.3,40.1,32.0,86,74,57,30.38,29.97,2,1,8,0.00
2013-11-7,62.2,51.8,38.1,55.3,46.8,31.2,89,83,75,29.97,29.69,4,1,14,0.12
2013-11-8,44.6,37.1,29.6,34.2,26.8,21.5,79,66,55,30.00,29.76,6,2,13,0.00
2013-11-9,41.7,34.8,26.0,29.2,24.7,20.6,81,67,50,30.14,29.93,4,1,8,0.00
2013-11-10,51.2,42.8,37.4,40.8,34.7,28.6,90,73,58,29.93,29.72,5,1,10,0.04
2013-11-11,48.0,42.7,36.6,31.2,28.5,26.4,67,57,45,30.08,29.79,6,2,16,0.00
2013-11-12,47.3,34.0,25.7,35.9,24.4,14.8,85,68,54,30.08,29.79,5,2,15,0.08
2013-11-13,33.0,27.0,22.2,17.0,14.6,12.5,73,60,45,30.25,30.00,5,2,12,0.00
2013-11-14,48.0,36.6,27.1,26.6,21.1,16.3,66,54,41,30.07,29.88,3,0,10,0.00
2013-11-15,58.1,43.1,30.3,28.0,23.3,17.7,60,47,28,30.19,29.98,2,0,6,0.00
2013-11-16,57.7,44.5,35.2,33.5,29.2,26.6,76,56,36,30.33,30.07,2,0,5,0.00
2013-11-17,47.6,40.8,33.4,41.4,35.7,28.0,90,82,72,30.20,29.79,1,0,3,0.04
2013-11-18,60.9,53.5,44.2,58.5,44.2,32.0,94,72,52,29.79,29.49,5,1,11,0.47
2013-11-19,45.6,37.5,29.3,32.1,22.8,16.7,61,55,48,30.15,29.64,7,4,18,0.00
2013-11-20,39.3,30.1,23.1,17.6,15.5,13.0,75,55,37,30.53,30.14,5,2,11,0.00
2013-11-21,44.6,32.4,20.3,31.8,22.5,15.5,84,68,47,30.55,30.26,2,0,5,0.00
2013-11-22,46.4,43.4,39.9,43.3,39.2,31.6,92,86,72,30.26,29.77,1,0,3,0.12
2013-11-23,46.9,37.4,26.4,43.9,26.6,16.9,91,65,46,29.94,29.72,6,3,16,0.00
2013-11-24,26.4,21.5,18.1,19.1,7.4,0.0,77,55,34,30.04,29.66,11,5,25,0.08
2013-11-25,30.3,22.7,14.9,15.6,6.5,0.0,57,50,36,30.34,30.02,5,2,12,0.00
2013-11-26,38.3,32.8,28.7,29.4,21.7,13.7,87,64,51,30.21,29.95,1,0,5,0.20
2013-11-27,59.7,45.1,32.5,58.2,43.0,29.2,95,92,87,29.95,29.28,5,2,13,2.95
2013-11-28,34.3,27.4,21.2,31.5,17.1,10.2,90,66,47,30.20,29.42,6,3,17,0.00
2013-11-29,31.1,25.2,20.1,16.1,12.6,6.8,75,59,46,30.54,30.19,4,1,8,0.00
2013-11-30,30.0,22.9,13.8,20.3,12.4,6.4,75,64,54,30.68,30.26,2,0,4,0.00
2013-12-1,35.7,32.0,28.2,33.6,28.0,20.3,92,85,72,30.26,29.94,1,0,3,0.20
2013-12-2,38.6,36.3,35.0,36.5,34.2,32.9,93,92,91,29.94,29.85,1,0,4,0.00
2013-12-3,46.4,36.4,30.0,40.4,32.3,27.5,93,86,66,29.88,29.78,4,1,9,0.00
2013-12-4,41.5,32.9,27.8,30.8,27.2,24.8,90,80,63,30.10,29.85,3,0,6,0.00
2013-12-5,51.2,36.7,28.9,49.5,33.9,25.2,95,89,85,30.10,29.86,3,0,6,0.04
2013-12-6,53.4,46.0,32.7,51.7,42.7,30.0,95,88,75,30.07,29.79,4,1,9,0.35
2013-12-7,34.3,31.3,26.2,30.6,26.8,19.5,92,83,72,30.33,29.98,4,1,13,0.16
2013-12-8,28.5,26.0,19.7,20.4,17.7,14.8,84,71,61,30.46,30.28,2,0,6,0.00
2013-12-9,32.5,29.0,24.6,30.4,25.5,16.6,92,87,68,30.35,29.81,2,0,6,0.00
2013-12-10,32.9,29.3,21.3,30.0,25.8,15.8,92,87,78,29.88,29.74,4,0,7,0.00
2013-12-11,28.4,22.9,19.0,20.0,16.9,14.1,83,77,68,30.19,29.88,2,0,6,0.00
2013-12-12,22.6,18.2,12.9,16.9,8.8,4.3,82,67,50,30.26,29.91,5,1,15,0.00
2013-12-13,26.7,20.0,13.4,17.6,11.3,6.1,74,69,60,30.22,29.77,3,1,8,0.00
2013-12-14,14.5,12.2,9.5,10.8,4.0,-1.0,85,70,54,30.43,29.99,2,1,6,0.00
2013-12-15,26.7,21.2,14.3,24.2,17.8,10.6,91,86,78,29.99,29.42,5,2,12,0.00
2013-12-16,24.8,20.6,12.0,18.8,11.3,4.4,85,67,52,30.07,29.61,7,1,15,0.00
2013-12-17,16.8,10.0,1.5,13.9,5.3,-3.0,88,80,72,30.13,29.83,4,1,8,0.00
2013-12-18,29.1,23.0,16.5,22.2,18.5,13.5,90,83,71,29.99,29.69,5,1,10,0.00
2013-12-19,36.5,29.2,19.4,27.0,22.8,15.0,86,77,64,30.02,29.85,2,0,7,0.04
2013-12-20,46.4,37.2,30.3,35.1,30.2,25.2,83,76,64,30.03,29.84,2,0,6,0.55
2013-12-21,49.2,42.0,35.6,43.8,37.5,30.9,91,84,78,29.88,29.75,3,0,10,0.00
2013-12-22,57.2,41.1,33.2,55.7,39.2,31.4,95,93,91,29.90,29.65,5,0,11,0.04
2013-12-23,36.8,32.9,31.4,35.5,31.3,29.6,95,94,93,30.04,29.85,3,0,5,0.91
2013-12-24,35.9,29.9,23.9,34.4,22.3,13.1,94,74,59,30.09,29.96,4,2,10,0.00
2013-12-25,23.9,17.1,12.5,13.5,5.6,1.6,70,60,50,30.45,30.08,5,2,13,0.00
2013-12-26,29.3,22.8,14.0,25.9,16.9,5.9,87,78,69,30.29,30.03,3,0,7,0.00
2013-12-27,31.2,25.6,19.5,21.7,18.9,15.9,86,76,63,30.19,30.00,1,0,5,0.00
2013-12-28,41.9,32.7,24.8,28.2,24.2,18.9,80,71,57,30.07,29.91,2,0,8,0.04
2013-12-29,39.0,34.5,30.0,33.9,29.8,24.6,93,83,72,29.98,29.43,4,1,10,1.69
2013-12-30,37.5,30.0,17.4,33.9,22.6,9.1,93,75,54,30.07,29.49,7,2,13,0.04
2013-12-31,23.5,17.3,11.1,13.9,8.6,3.4,79,69,56,30.06,29.91,3,1,9,0.00
2014-1-1,25.3,19.3,13.8,12.6,8.6,5.7,74,63,51,30.28,30.03,3,1,8,0.00
2014-1-2,19.5,11.0,1.0,13.5,6.4,-3.0,83,81,73,30.18,29.68,5,2,11,0.00